Terminal Aerodrome Forecast
Issued by NWS Charleston, WV

Home | Current Version | Previous Version | Text Only | Print | Product List | Glossary On
Versions: 1 2 3 4 5 6 7 8 9 10 11 12 13 14 15 16 17 18 19 20 21
249
FTUS41 KRLX 261723
TAFHTS
TAF
KHTS 261723Z 2618/2718 00000KT P6SM SKC
     FM271600 23004KT 6SM -TSRA OVC120CB=

USA.gov is the U.S. government's official web portal to all federal, state and local government web resources and services.